sensor_id;sensor_type;location;lat;lon;timestamp;temperature;humidity
1766;DHT22;880;52.452;8.656;2022-09-30T00:01:42;10.10;99.90
1766;DHT22;880;52.452;8.656;2022-09-30T00:04:15;10.10;99.90
1766;DHT22;880;52.452;8.656;2022-09-30T00:06:44;10.10;99.90
1766;DHT22;880;52.452;8.656;2022-09-30T00:09:11;10.10;99.90
1766;DHT22;880;52.452;8.656;2022-09-30T00:11:39;10.10;99.90
1766;DHT22;880;52.452;8.656;2022-09-30T00:14:12;10.10;99.90
1766;DHT22;880;52.452;8.656;2022-09-30T00:16:42;10.00;99.90
1766;DHT22;880;52.452;8.656;2022-09-30T00:19:09;9.90;99.90
1766;DHT22;880;52.452;8.656;2022-09-30T00:21:36;9.90;99.90
1766;DHT22;880;52.452;8.656;2022-09-30T00:24:05;9.90;99.90
1766;DHT22;880;52.452;8.656;2022-09-30T00:26:34;9.80;99.90
1766;DHT22;880;52.452;8.656;2022-09-30T00:29:02;9.80;99.90
1766;DHT22;880;52.452;8.656;2022-09-30T00:31:32;9.80;99.90
1766;DHT22;880;52.452;8.656;2022-09-30T00:34:01;9.70;99.90
1766;DHT22;880;52.452;8.656;2022-09-30T00:36:38;9.70;99.90
1766;DHT22;880;52.452;8.656;2022-09-30T00:39:07;9.60;99.90
1766;DHT22;880;52.452;8.656;2022-09-30T00:41:36;9.60;99.90
1766;DHT22;880;52.452;8.656;2022-09-30T00:44:42;9.50;99.90
1766;DHT22;880;52.452;8.656;2022-09-30T00:47:35;9.50;99.90
1766;DHT22;880;52.452;8.656;2022-09-30T00:50:37;9.50;99.90
1766;DHT22;880;52.452;8.656;2022-09-30T00:53:15;9.30;99.90
1766;DHT22;880;52.452;8.656;2022-09-30T00:55:58;9.20;99.90
1766;DHT22;880;52.452;8.656;2022-09-30T00:58:38;9.10;99.90
1766;DHT22;880;52.452;8.656;2022-09-30T01:01:11;9.10;99.90
1766;DHT22;880;52.452;8.656;2022-09-30T01:03:59;9.00;99.90
1766;DHT22;880;52.452;8.656;2022-09-30T01:06:27;8.90;99.90
1766;DHT22;880;52.452;8.656;2022-09-30T01:08:54;9.00;99.90
1766;DHT22;880;52.452;8.656;2022-09-30T01:11:27;9.00;99.90
1766;DHT22;880;52.452;8.656;2022-09-30T01:13:58;9.00;99.90
1766;DHT22;880;52.452;8.656;2022-09-30T01:44:06;9.00;99.90
1766;DHT22;880;52.452;8.656;2022-09-30T01:46:53;9.00;99.90
1766;DHT22;880;52.452;8.656;2022-09-30T01:49:49;9.10;99.90
1766;DHT22;880;52.452;8.656;2022-09-30T01:52:30;9.10;99.90
1766;DHT22;880;52.452;8.656;2022-09-30T01:55:21;9.10;99.90
1766;DHT22;880;52.452;8.656;2022-09-30T01:58:04;9.10;99.90
1766;DHT22;880;52.452;8.656;2022-09-30T02:00:45;9.10;99.90
1766;DHT22;880;52.452;8.656;2022-09-30T02:03:30;9.10;99.90
1766;DHT22;880;52.452;8.656;2022-09-30T02:06:05;9.10;99.90
1766;DHT22;880;52.452;8.656;2022-09-30T02:11:19;9.10;99.90
1766;DHT22;880;52.452;8.656;2022-09-30T02:14:01;9.00;99.90
1766;DHT22;880;52.452;8.656;2022-09-30T02:17:09;9.00;99.90
1766;DHT22;880;52.452;8.656;2022-09-30T02:19:56;8.90;99.90
1766;DHT22;880;52.452;8.656;2022-09-30T02:22:37;8.80;99.90
1766;DHT22;880;52.452;8.656;2022-09-30T02:25:30;8.80;99.90
1766;DHT22;880;52.452;8.656;2022-09-30T02:28:02;8.60;99.90
1766;DHT22;880;52.452;8.656;2022-09-30T02:30:35;8.60;99.90
1766;DHT22;880;52.452;8.656;2022-09-30T02:33:10;8.60;99.90
1766;DHT22;880;52.452;8.656;2022-09-30T02:35:44;8.60;99.90
1766;DHT22;880;52.452;8.656;2022-09-30T02:38:19;8.50;99.90
1766;DHT22;880;52.452;8.656;2022-09-30T02:41:00;8.60;99.90
1766;DHT22;880;52.452;8.656;2022-09-30T02:43:32;8.70;99.90
1766;DHT22;880;52.452;8.656;2022-09-30T02:46:22;8.70;99.90
1766;DHT22;880;52.452;8.656;2022-09-30T02:49:27;8.70;99.90
1766;DHT22;880;52.452;8.656;2022-09-30T02:55:18;8.80;99.90
1766;DHT22;880;52.452;8.656;2022-09-30T02:58:00;8.80;99.90
1766;DHT22;880;52.452;8.656;2022-09-30T03:00:36;8.70;99.90
1766;DHT22;880;52.452;8.656;2022-09-30T03:05:51;8.80;99.90
1766;DHT22;880;52.452;8.656;2022-09-30T03:08:18;8.80;99.90
1766;DHT22;880;52.452;8.656;2022-09-30T03:10:47;8.90;99.90
1766;DHT22;880;52.452;8.656;2022-09-30T03:21:58;9.00;99.90
1766;DHT22;880;52.452;8.656;2022-09-30T03:28:03;9.00;99.90
1766;DHT22;880;52.452;8.656;2022-09-30T03:30:40;9.00;99.90
1766;DHT22;880;52.452;8.656;2022-09-30T03:33:25;9.00;99.90
1766;DHT22;880;52.452;8.656;2022-09-30T03:36:46;9.00;99.90
1766;DHT22;880;52.452;8.656;2022-09-30T03:39:55;8.90;99.90
1766;DHT22;880;52.452;8.656;2022-09-30T03:42:35;8.90;99.90
1766;DHT22;880;52.452;8.656;2022-09-30T03:45:24;8.90;99.90
1766;DHT22;880;52.452;8.656;2022-09-30T03:47:57;8.90;99.90
1766;DHT22;880;52.452;8.656;2022-09-30T03:50:28;8.90;99.90
1766;DHT22;880;52.452;8.656;2022-09-30T03:52:56;8.90;99.90
1766;DHT22;880;52.452;8.656;2022-09-30T03:55:24;8.90;99.90
1766;DHT22;880;52.452;8.656;2022-09-30T03:57:51;8.90;99.90
1766;DHT22;880;52.452;8.656;2022-09-30T04:00:20;8.90;99.90
1766;DHT22;880;52.452;8.656;2022-09-30T04:02:47;8.80;99.90
1766;DHT22;880;52.452;8.656;2022-09-30T04:05:14;8.80;99.90
1766;DHT22;880;52.452;8.656;2022-09-30T04:07:41;8.80;99.90
1766;DHT22;880;52.452;8.656;2022-09-30T04:10:08;8.90;99.90
1766;DHT22;880;52.452;8.656;2022-09-30T04:12:35;8.90;99.90
1766;DHT22;880;52.452;8.656;2022-09-30T04:15:03;8.90;99.90
1766;DHT22;880;52.452;8.656;2022-09-30T04:17:30;8.90;99.90
1766;DHT22;880;52.452;8.656;2022-09-30T04:19:57;8.90;99.90
1766;DHT22;880;52.452;8.656;2022-09-30T04:22:24;8.80;99.90
1766;DHT22;880;52.452;8.656;2022-09-30T04:24:52;8.80;99.90
1766;DHT22;880;52.452;8.656;2022-09-30T04:27:19;8.80;99.90
1766;DHT22;880;52.452;8.656;2022-09-30T04:29:46;8.80;99.90
1766;DHT22;880;52.452;8.656;2022-09-30T04:32:13;8.70;99.90
1766;DHT22;880;52.452;8.656;2022-09-30T04:34:40;8.70;99.90
1766;DHT22;880;52.452;8.656;2022-09-30T04:37:07;8.70;99.90
1766;DHT22;880;52.452;8.656;2022-09-30T04:39:36;8.70;99.90
1766;DHT22;880;52.452;8.656;2022-09-30T04:42:03;8.70;99.90
1766;DHT22;880;52.452;8.656;2022-09-30T04:44:32;8.70;99.90
1766;DHT22;880;52.452;8.656;2022-09-30T04:46:59;8.60;99.90
1766;DHT22;880;52.452;8.656;2022-09-30T04:49:26;8.60;99.90
1766;DHT22;880;52.452;8.656;2022-09-30T04:51:53;8.60;99.90
1766;DHT22;880;52.452;8.656;2022-09-30T04:54:21;8.60;99.90
1766;DHT22;880;52.452;8.656;2022-09-30T04:56:48;8.50;99.90
1766;DHT22;880;52.452;8.656;2022-09-30T04:59:15;8.50;99.90
1766;DHT22;880;52.452;8.656;2022-09-30T05:01:42;8.50;99.90
1766;DHT22;880;52.452;8.656;2022-09-30T05:04:10;8.50;99.90
1766;DHT22;880;52.452;8.656;2022-09-30T05:06:41;8.40;99.90
1766;DHT22;880;52.452;8.656;2022-09-30T05:09:08;8.40;99.90
1766;DHT22;880;52.452;8.656;2022-09-30T05:11:35;8.30;99.90
1766;DHT22;880;52.452;8.656;2022-09-30T05:14:07;8.30;99.90
1766;DHT22;880;52.452;8.656;2022-09-30T05:16:35;8.20;99.90
1766;DHT22;880;52.452;8.656;2022-09-30T05:19:02;8.20;99.90
1766;DHT22;880;52.452;8.656;2022-09-30T05:21:29;8.20;99.90
1766;DHT22;880;52.452;8.656;2022-09-30T05:23:56;8.20;99.90
1766;DHT22;880;52.452;8.656;2022-09-30T05:26:23;8.20;99.90
1766;DHT22;880;52.452;8.656;2022-09-30T05:28:51;8.20;99.90
1766;DHT22;880;52.452;8.656;2022-09-30T05:31:18;8.20;99.90
1766;DHT22;880;52.452;8.656;2022-09-30T05:33:46;8.10;99.90
1766;DHT22;880;52.452;8.656;2022-09-30T05:36:14;8.10;99.90
1766;DHT22;880;52.452;8.656;2022-09-30T05:38:42;8.00;99.90
1766;DHT22;880;52.452;8.656;2022-09-30T05:41:13;8.10;99.90
1766;DHT22;880;52.452;8.656;2022-09-30T05:43:42;8.00;99.90
1766;DHT22;880;52.452;8.656;2022-09-30T05:46:19;8.00;99.90
1766;DHT22;880;52.452;8.656;2022-09-30T05:48:46;8.00;99.90
1766;DHT22;880;52.452;8.656;2022-09-30T05:51:13;7.90;99.90
1766;DHT22;880;52.452;8.656;2022-09-30T05:53:40;7.90;99.90
1766;DHT22;880;52.452;8.656;2022-09-30T05:56:08;7.90;99.90
1766;DHT22;880;52.452;8.656;2022-09-30T05:58:36;7.90;99.90
1766;DHT22;880;52.452;8.656;2022-09-30T06:01:06;7.90;99.90
1766;DHT22;880;52.452;8.656;2022-09-30T06:03:39;8.00;99.90
1766;DHT22;880;52.452;8.656;2022-09-30T06:06:07;8.10;99.90
1766;DHT22;880;52.452;8.656;2022-09-30T06:08:35;8.20;99.90
1766;DHT22;880;52.452;8.656;2022-09-30T06:11:07;8.30;99.90
1766;DHT22;880;52.452;8.656;2022-09-30T06:13:38;8.30;99.90
1766;DHT22;880;52.452;8.656;2022-09-30T06:16:07;8.40;99.90
1766;DHT22;880;52.452;8.656;2022-09-30T06:18:34;8.30;99.90
1766;DHT22;880;52.452;8.656;2022-09-30T06:21:03;8.40;99.90
1766;DHT22;880;52.452;8.656;2022-09-30T06:23:31;8.40;99.90
1766;DHT22;880;52.452;8.656;2022-09-30T06:26:02;8.50;99.90
1766;DHT22;880;52.452;8.656;2022-09-30T06:28:30;8.60;99.90
1766;DHT22;880;52.452;8.656;2022-09-30T06:31:04;8.80;99.90
1766;DHT22;880;52.452;8.656;2022-09-30T06:33:33;8.80;99.90
1766;DHT22;880;52.452;8.656;2022-09-30T06:36:00;8.90;99.90
1766;DHT22;880;52.452;8.656;2022-09-30T06:38:31;9.00;99.90
1766;DHT22;880;52.452;8.656;2022-09-30T06:40:59;9.10;99.90
1766;DHT22;880;52.452;8.656;2022-09-30T06:43:26;9.20;99.90
1766;DHT22;880;52.452;8.656;2022-09-30T06:45:53;9.20;99.90
1766;DHT22;880;52.452;8.656;2022-09-30T06:48:37;9.30;99.90
1766;DHT22;880;52.452;8.656;2022-09-30T06:51:06;9.50;99.90
1766;DHT22;880;52.452;8.656;2022-09-30T06:53:37;9.60;99.90
1766;DHT22;880;52.452;8.656;2022-09-30T06:56:05;9.60;99.90
1766;DHT22;880;52.452;8.656;2022-09-30T06:58:32;9.80;99.90
1766;DHT22;880;52.452;8.656;2022-09-30T07:01:01;9.90;99.90
1766;DHT22;880;52.452;8.656;2022-09-30T07:03:32;10.10;99.90
1766;DHT22;880;52.452;8.656;2022-09-30T07:06:02;10.30;99.90
1766;DHT22;880;52.452;8.656;2022-09-30T07:08:31;10.40;99.90
1766;DHT22;880;52.452;8.656;2022-09-30T07:11:01;10.50;99.90
1766;DHT22;880;52.452;8.656;2022-09-30T07:13:40;10.60;99.90
1766;DHT22;880;52.452;8.656;2022-09-30T07:16:09;10.70;99.90
1766;DHT22;880;52.452;8.656;2022-09-30T07:18:38;10.80;99.90
1766;DHT22;880;52.452;8.656;2022-09-30T07:21:08;10.90;99.90
1766;DHT22;880;52.452;8.656;2022-09-30T07:23:36;11.00;99.90
1766;DHT22;880;52.452;8.656;2022-09-30T07:26:03;11.20;99.90
1766;DHT22;880;52.452;8.656;2022-09-30T07:28:35;11.30;99.90
1766;DHT22;880;52.452;8.656;2022-09-30T07:31:09;11.30;99.90
1766;DHT22;880;52.452;8.656;2022-09-30T07:33:58;11.30;99.90
1766;DHT22;880;52.452;8.656;2022-09-30T07:36:25;11.40;99.90
1766;DHT22;880;52.452;8.656;2022-09-30T07:39:00;11.60;99.90
1766;DHT22;880;52.452;8.656;2022-09-30T07:41:33;11.60;99.90
1766;DHT22;880;52.452;8.656;2022-09-30T07:44:02;11.60;99.90
1766;DHT22;880;52.452;8.656;2022-09-30T07:46:34;11.70;99.90
1766;DHT22;880;52.452;8.656;2022-09-30T07:49:06;11.80;99.90
1766;DHT22;880;52.452;8.656;2022-09-30T07:51:40;11.90;99.90
1766;DHT22;880;52.452;8.656;2022-09-30T07:54:16;11.90;99.90
1766;DHT22;880;52.452;8.656;2022-09-30T07:56:45;12.00;99.90
1766;DHT22;880;52.452;8.656;2022-09-30T07:59:35;12.10;99.90
1766;DHT22;880;52.452;8.656;2022-09-30T08:02:06;12.20;99.90
1766;DHT22;880;52.452;8.656;2022-09-30T08:04:36;12.30;99.90
1766;DHT22;880;52.452;8.656;2022-09-30T08:07:09;12.40;99.90
1766;DHT22;880;52.452;8.656;2022-09-30T08:09:36;12.50;99.90
1766;DHT22;880;52.452;8.656;2022-09-30T08:12:04;12.60;99.90
1766;DHT22;880;52.452;8.656;2022-09-30T08:14:31;12.70;99.90
1766;DHT22;880;52.452;8.656;2022-09-30T08:16:58;12.90;99.90
1766;DHT22;880;52.452;8.656;2022-09-30T08:19:28;13.10;99.90
1766;DHT22;880;52.452;8.656;2022-09-30T08:21:56;13.10;99.90
1766;DHT22;880;52.452;8.656;2022-09-30T08:24:24;13.10;99.90
1766;DHT22;880;52.452;8.656;2022-09-30T08:26:52;13.10;99.90
1766;DHT22;880;52.452;8.656;2022-09-30T08:29:20;13.20;99.90
1766;DHT22;880;52.452;8.656;2022-09-30T08:32:07;13.10;99.90
1766;DHT22;880;52.452;8.656;2022-09-30T08:34:34;13.20;99.90
1766;DHT22;880;52.452;8.656;2022-09-30T08:37:02;13.40;99.90
1766;DHT22;880;52.452;8.656;2022-09-30T08:39:38;13.50;99.90
1766;DHT22;880;52.452;8.656;2022-09-30T08:45:30;14.00;99.90
1766;DHT22;880;52.452;8.656;2022-09-30T08:53:35;14.20;99.90
1766;DHT22;880;52.452;8.656;2022-09-30T08:56:05;14.40;99.90
1766;DHT22;880;52.452;8.656;2022-09-30T08:58:37;14.50;99.90
1766;DHT22;880;52.452;8.656;2022-09-30T09:01:19;14.70;99.90
1766;DHT22;880;52.452;8.656;2022-09-30T09:03:52;15.00;99.90
1766;DHT22;880;52.452;8.656;2022-09-30T09:06:28;15.20;99.90
1766;DHT22;880;52.452;8.656;2022-09-30T09:09:43;15.30;99.90
1766;DHT22;880;52.452;8.656;2022-09-30T09:24:17;15.30;99.90
1766;DHT22;880;52.452;8.656;2022-09-30T09:26:46;15.40;99.90
1766;DHT22;880;52.452;8.656;2022-09-30T09:32:11;15.70;99.90
1766;DHT22;880;52.452;8.656;2022-09-30T09:34:40;15.70;99.90
1766;DHT22;880;52.452;8.656;2022-09-30T09:37:16;15.90;99.90
1766;DHT22;880;52.452;8.656;2022-09-30T09:43:11;16.00;99.90
1766;DHT22;880;52.452;8.656;2022-09-30T09:46:02;16.10;99.90
1766;DHT22;880;52.452;8.656;2022-09-30T09:48:40;16.10;99.90
1766;DHT22;880;52.452;8.656;2022-09-30T09:51:27;16.10;99.90
1766;DHT22;880;52.452;8.656;2022-09-30T09:54:00;16.30;99.90
1766;DHT22;880;52.452;8.656;2022-09-30T09:56:29;16.50;99.90
1766;DHT22;880;52.452;8.656;2022-09-30T09:59:08;16.70;99.90
1766;DHT22;880;52.452;8.656;2022-09-30T10:01:44;16.90;99.90
1766;DHT22;880;52.452;8.656;2022-09-30T10:04:24;16.70;99.90
1766;DHT22;880;52.452;8.656;2022-09-30T10:06:58;16.60;99.90
1766;DHT22;880;52.452;8.656;2022-09-30T10:09:33;16.80;99.90
1766;DHT22;880;52.452;8.656;2022-09-30T10:14:33;16.90;99.90
1766;DHT22;880;52.452;8.656;2022-09-30T10:17:03;17.10;99.90
1766;DHT22;880;52.452;8.656;2022-09-30T10:19:33;17.30;99.90
1766;DHT22;880;52.452;8.656;2022-09-30T10:24:38;17.60;99.90
1766;DHT22;880;52.452;8.656;2022-09-30T10:27:30;17.50;99.90
1766;DHT22;880;52.452;8.656;2022-09-30T10:30:00;17.40;99.90
1766;DHT22;880;52.452;8.656;2022-09-30T10:32:27;17.40;99.90
1766;DHT22;880;52.452;8.656;2022-09-30T10:35:05;17.60;99.90
1766;DHT22;880;52.452;8.656;2022-09-30T10:37:52;17.70;99.90
1766;DHT22;880;52.452;8.656;2022-09-30T10:40:28;17.80;99.90
1766;DHT22;880;52.452;8.656;2022-09-30T10:42:56;17.90;99.90
1766;DHT22;880;52.452;8.656;2022-09-30T10:45:29;17.90;99.90
1766;DHT22;880;52.452;8.656;2022-09-30T10:48:06;18.00;99.90
1766;DHT22;880;52.452;8.656;2022-09-30T10:50:52;18.10;99.90
1766;DHT22;880;52.452;8.656;2022-09-30T10:53:22;18.00;99.90
1766;DHT22;880;52.452;8.656;2022-09-30T10:55:51;18.10;99.90
1766;DHT22;880;52.452;8.656;2022-09-30T10:58:33;18.10;99.90
1766;DHT22;880;52.452;8.656;2022-09-30T11:01:24;18.00;99.90
1766;DHT22;880;52.452;8.656;2022-09-30T11:07:08;18.70;99.90
1766;DHT22;880;52.452;8.656;2022-09-30T11:09:49;18.80;99.90
1766;DHT22;880;52.452;8.656;2022-09-30T11:12:42;18.60;99.90
1766;DHT22;880;52.452;8.656;2022-09-30T11:15:24;18.50;99.90
1766;DHT22;880;52.452;8.656;2022-09-30T11:18:24;18.50;99.90
1766;DHT22;880;52.452;8.656;2022-09-30T11:21:17;18.70;99.90
1766;DHT22;880;52.452;8.656;2022-09-30T11:23:52;18.80;99.90
1766;DHT22;880;52.452;8.656;2022-09-30T11:33:00;18.90;99.90
1766;DHT22;880;52.452;8.656;2022-09-30T11:39:01;19.00;99.90
1766;DHT22;880;52.452;8.656;2022-09-30T11:41:50;19.00;99.90
1766;DHT22;880;52.452;8.656;2022-09-30T11:44:42;19.00;99.90
1766;DHT22;880;52.452;8.656;2022-09-30T11:47:38;18.80;99.90
1766;DHT22;880;52.452;8.656;2022-09-30T12:02:46;17.80;99.90
1766;DHT22;880;52.452;8.656;2022-09-30T12:05:26;17.70;99.90
1766;DHT22;880;52.452;8.656;2022-09-30T12:10:38;17.80;99.90
1766;DHT22;880;52.452;8.656;2022-09-30T12:13:13;17.60;99.90
1766;DHT22;880;52.452;8.656;2022-09-30T12:15:45;17.70;99.90
1766;DHT22;880;52.452;8.656;2022-09-30T12:18:17;18.00;99.90
1766;DHT22;880;52.452;8.656;2022-09-30T12:20:51;18.20;99.90
1766;DHT22;880;52.452;8.656;2022-09-30T12:26:24;18.40;99.90
1766;DHT22;880;52.452;8.656;2022-09-30T12:28:56;18.50;99.90
1766;DHT22;880;52.452;8.656;2022-09-30T12:35:06;18.20;99.90
1766;DHT22;880;52.452;8.656;2022-09-30T12:44:23;18.80;99.90
1766;DHT22;880;52.452;8.656;2022-09-30T12:47:21;18.70;99.90
1766;DHT22;880;52.452;8.656;2022-09-30T12:49:56;18.70;99.90
1766;DHT22;880;52.452;8.656;2022-09-30T12:52:25;18.70;99.90
1766;DHT22;880;52.452;8.656;2022-09-30T12:55:04;18.40;99.90
1766;DHT22;880;52.452;8.656;2022-09-30T12:57:45;18.20;99.90
1766;DHT22;880;52.452;8.656;2022-09-30T13:00:16;17.80;99.90
1766;DHT22;880;52.452;8.656;2022-09-30T13:02:48;17.80;99.90
1766;DHT22;880;52.452;8.656;2022-09-30T13:10:32;18.80;99.90
1766;DHT22;880;52.452;8.656;2022-09-30T13:15:40;19.00;99.90
1766;DHT22;880;52.452;8.656;2022-09-30T13:23:39;19.40;99.90
1766;DHT22;880;52.452;8.656;2022-09-30T13:26:31;19.70;99.90
1766;DHT22;880;52.452;8.656;2022-09-30T13:31:29;19.50;99.40
1766;DHT22;880;52.452;8.656;2022-09-30T13:36:30;19.10;99.00
1766;DHT22;880;52.452;8.656;2022-09-30T13:39:06;19.00;99.90
1766;DHT22;880;52.452;8.656;2022-09-30T13:47:43;18.60;99.90
1766;DHT22;880;52.452;8.656;2022-09-30T13:50:28;18.60;99.90
1766;DHT22;880;52.452;8.656;2022-09-30T13:53:13;18.70;99.90
1766;DHT22;880;52.452;8.656;2022-09-30T13:55:44;18.70;99.90
1766;DHT22;880;52.452;8.656;2022-09-30T14:01:58;18.90;99.20
1766;DHT22;880;52.452;8.656;2022-09-30T14:05:02;18.80;99.90
1766;DHT22;880;52.452;8.656;2022-09-30T14:11:06;18.90;99.50
1766;DHT22;880;52.452;8.656;2022-09-30T14:13:51;18.80;99.30
1766;DHT22;880;52.452;8.656;2022-09-30T14:20:16;18.40;99.90
1766;DHT22;880;52.452;8.656;2022-09-30T14:22:36;18.40;99.90
1766;DHT22;880;52.452;8.656;2022-09-30T14:25:08;18.60;99.90
1766;DHT22;880;52.452;8.656;2022-09-30T14:30:23;18.60;99.10
1766;DHT22;880;52.452;8.656;2022-09-30T14:33:02;18.50;99.20
1766;DHT22;880;52.452;8.656;2022-09-30T14:35:37;18.50;99.40
1766;DHT22;880;52.452;8.656;2022-09-30T14:38:17;18.60;99.20
1766;DHT22;880;52.452;8.656;2022-09-30T14:40:51;18.50;99.20
1766;DHT22;880;52.452;8.656;2022-09-30T14:43:29;18.60;99.70
1766;DHT22;880;52.452;8.656;2022-09-30T14:46:23;18.70;99.20
1766;DHT22;880;52.452;8.656;2022-09-30T14:48:53;18.70;99.30
1766;DHT22;880;52.452;8.656;2022-09-30T14:51:25;18.70;99.50
1766;DHT22;880;52.452;8.656;2022-09-30T14:53:59;18.90;99.60
1766;DHT22;880;52.452;8.656;2022-09-30T14:56:30;18.80;98.50
1766;DHT22;880;52.452;8.656;2022-09-30T14:59:05;18.80;98.30
1766;DHT22;880;52.452;8.656;2022-09-30T15:01:47;18.80;98.50
1766;DHT22;880;52.452;8.656;2022-09-30T15:04:36;18.70;98.90
1766;DHT22;880;52.452;8.656;2022-09-30T15:07:09;18.70;99.70
1766;DHT22;880;52.452;8.656;2022-09-30T15:09:42;18.50;99.30
1766;DHT22;880;52.452;8.656;2022-09-30T15:12:20;18.30;99.20
1766;DHT22;880;52.452;8.656;2022-09-30T15:14:52;18.10;99.10
1766;DHT22;880;52.452;8.656;2022-09-30T15:17:37;18.00;99.50
1766;DHT22;880;52.452;8.656;2022-09-30T15:22:52;18.10;99.90
1766;DHT22;880;52.452;8.656;2022-09-30T15:25:20;18.10;99.40
1766;DHT22;880;52.452;8.656;2022-09-30T15:27:48;18.00;99.40
1766;DHT22;880;52.452;8.656;2022-09-30T15:32:45;18.20;99.50
1766;DHT22;880;52.452;8.656;2022-09-30T15:35:20;18.20;99.60
1766;DHT22;880;52.452;8.656;2022-09-30T15:37:50;18.10;99.20
1766;DHT22;880;52.452;8.656;2022-09-30T15:40:20;18.10;99.40
1766;DHT22;880;52.452;8.656;2022-09-30T15:46:27;17.90;98.60
1766;DHT22;880;52.452;8.656;2022-09-30T15:49:00;17.80;98.90
1766;DHT22;880;52.452;8.656;2022-09-30T15:51:37;17.70;98.90
1766;DHT22;880;52.452;8.656;2022-09-30T15:56:41;17.80;99.00
1766;DHT22;880;52.452;8.656;2022-09-30T15:59:13;17.80;99.40
1766;DHT22;880;52.452;8.656;2022-09-30T16:01:46;17.80;99.30
1766;DHT22;880;52.452;8.656;2022-09-30T16:09:33;17.60;99.50
1766;DHT22;880;52.452;8.656;2022-09-30T16:12:27;17.50;99.70
1766;DHT22;880;52.452;8.656;2022-09-30T16:15:10;17.50;99.80
1766;DHT22;880;52.452;8.656;2022-09-30T16:17:45;17.40;99.80
1766;DHT22;880;52.452;8.656;2022-09-30T16:25:27;17.10;99.90
1766;DHT22;880;52.452;8.656;2022-09-30T16:28:13;17.10;99.90
1766;DHT22;880;52.452;8.656;2022-09-30T16:30:46;17.10;99.90
1766;DHT22;880;52.452;8.656;2022-09-30T16:33:24;17.00;99.90
1766;DHT22;880;52.452;8.656;2022-09-30T16:35:51;16.90;99.90
1766;DHT22;880;52.452;8.656;2022-09-30T16:38:18;16.80;99.90
1766;DHT22;880;52.452;8.656;2022-09-30T16:40:45;16.70;99.90
1766;DHT22;880;52.452;8.656;2022-09-30T16:43:13;16.70;99.90
1766;DHT22;880;52.452;8.656;2022-09-30T16:45:40;16.60;99.90
1766;DHT22;880;52.452;8.656;2022-09-30T16:48:14;16.50;99.90
1766;DHT22;880;52.452;8.656;2022-09-30T16:53:11;16.30;99.90
1766;DHT22;880;52.452;8.656;2022-09-30T16:55:39;16.20;99.90
1766;DHT22;880;52.452;8.656;2022-09-30T16:58:09;16.10;99.90
1766;DHT22;880;52.452;8.656;2022-09-30T17:00:42;16.00;99.90
1766;DHT22;880;52.452;8.656;2022-09-30T17:03:14;16.00;99.90
1766;DHT22;880;52.452;8.656;2022-09-30T17:05:44;15.90;99.90
1766;DHT22;880;52.452;8.656;2022-09-30T17:08:15;16.00;99.90
1766;DHT22;880;52.452;8.656;2022-09-30T17:10:44;15.90;99.90
1766;DHT22;880;52.452;8.656;2022-09-30T17:13:13;15.80;99.90
1766;DHT22;880;52.452;8.656;2022-09-30T17:15:47;15.70;99.90
1766;DHT22;880;52.452;8.656;2022-09-30T17:18:15;15.60;99.90
1766;DHT22;880;52.452;8.656;2022-09-30T17:20:44;15.60;99.90
1766;DHT22;880;52.452;8.656;2022-09-30T17:23:14;15.50;99.90
1766;DHT22;880;52.452;8.656;2022-09-30T17:25:41;15.40;99.90
1766;DHT22;880;52.452;8.656;2022-09-30T17:28:10;15.40;99.90
1766;DHT22;880;52.452;8.656;2022-09-30T17:30:38;15.20;99.90
1766;DHT22;880;52.452;8.656;2022-09-30T17:33:07;15.00;99.90
1766;DHT22;880;52.452;8.656;2022-09-30T17:35:37;15.00;99.90
1766;DHT22;880;52.452;8.656;2022-09-30T17:38:11;14.90;99.90
1766;DHT22;880;52.452;8.656;2022-09-30T17:40:39;14.90;99.90
1766;DHT22;880;52.452;8.656;2022-09-30T17:43:24;14.80;99.90
1766;DHT22;880;52.452;8.656;2022-09-30T17:45:52;14.80;99.90
1766;DHT22;880;52.452;8.656;2022-09-30T17:48:21;14.70;99.90
1766;DHT22;880;52.452;8.656;2022-09-30T17:50:48;14.50;99.90
1766;DHT22;880;52.452;8.656;2022-09-30T17:53:15;14.40;99.90
1766;DHT22;880;52.452;8.656;2022-09-30T17:55:45;14.30;99.90
1766;DHT22;880;52.452;8.656;2022-09-30T17:58:17;14.20;99.90
1766;DHT22;880;52.452;8.656;2022-09-30T18:00:44;14.20;99.90
1766;DHT22;880;52.452;8.656;2022-09-30T18:03:12;14.20;99.90
1766;DHT22;880;52.452;8.656;2022-09-30T18:05:39;14.20;99.90
1766;DHT22;880;52.452;8.656;2022-09-30T18:08:06;14.10;99.90
1766;DHT22;880;52.452;8.656;2022-09-30T18:10:35;14.00;99.90
1766;DHT22;880;52.452;8.656;2022-09-30T18:13:03;14.00;99.90
1766;DHT22;880;52.452;8.656;2022-09-30T18:15:30;13.90;99.90
1766;DHT22;880;52.452;8.656;2022-09-30T18:17:58;13.80;99.90
1766;DHT22;880;52.452;8.656;2022-09-30T18:20:24;13.70;99.90
1766;DHT22;880;52.452;8.656;2022-09-30T18:22:52;13.60;99.90
1766;DHT22;880;52.452;8.656;2022-09-30T18:25:19;13.50;99.90
1766;DHT22;880;52.452;8.656;2022-09-30T18:27:50;13.50;99.90
1766;DHT22;880;52.452;8.656;2022-09-30T18:30:19;13.50;99.90
1766;DHT22;880;52.452;8.656;2022-09-30T18:32:48;13.50;99.90
1766;DHT22;880;52.452;8.656;2022-09-30T18:35:19;13.50;99.90
1766;DHT22;880;52.452;8.656;2022-09-30T18:37:48;13.40;99.90
1766;DHT22;880;52.452;8.656;2022-09-30T18:40:17;13.40;99.90
1766;DHT22;880;52.452;8.656;2022-09-30T18:42:56;13.30;99.90
1766;DHT22;880;52.452;8.656;2022-09-30T18:45:26;13.20;99.90
1766;DHT22;880;52.452;8.656;2022-09-30T18:47:58;13.20;99.90
1766;DHT22;880;52.452;8.656;2022-09-30T18:50:28;13.20;99.90
1766;DHT22;880;52.452;8.656;2022-09-30T18:52:56;13.10;99.90
1766;DHT22;880;52.452;8.656;2022-09-30T18:55:23;13.00;99.90
1766;DHT22;880;52.452;8.656;2022-09-30T18:57:54;13.00;99.90
1766;DHT22;880;52.452;8.656;2022-09-30T19:00:21;12.90;99.90
1766;DHT22;880;52.452;8.656;2022-09-30T19:02:50;12.90;99.90
1766;DHT22;880;52.452;8.656;2022-09-30T19:05:17;12.90;99.90
1766;DHT22;880;52.452;8.656;2022-09-30T19:07:45;12.90;99.90
1766;DHT22;880;52.452;8.656;2022-09-30T19:10:12;12.90;99.90
1766;DHT22;880;52.452;8.656;2022-09-30T19:12:39;12.90;99.90
1766;DHT22;880;52.452;8.656;2022-09-30T19:15:12;12.80;99.90
1766;DHT22;880;52.452;8.656;2022-09-30T19:17:44;12.80;99.90
1766;DHT22;880;52.452;8.656;2022-09-30T19:20:12;12.80;99.90
1766;DHT22;880;52.452;8.656;2022-09-30T19:22:40;12.70;99.90
1766;DHT22;880;52.452;8.656;2022-09-30T19:25:09;12.70;99.90
1766;DHT22;880;52.452;8.656;2022-09-30T19:27:38;12.70;99.90
1766;DHT22;880;52.452;8.656;2022-09-30T19:30:08;12.70;99.90
1766;DHT22;880;52.452;8.656;2022-09-30T19:32:37;12.60;99.90
1766;DHT22;880;52.452;8.656;2022-09-30T19:35:07;12.60;99.90
1766;DHT22;880;52.452;8.656;2022-09-30T19:37:36;12.50;99.90
1766;DHT22;880;52.452;8.656;2022-09-30T19:40:07;12.50;99.90
1766;DHT22;880;52.452;8.656;2022-09-30T19:42:48;12.50;99.90
1766;DHT22;880;52.452;8.656;2022-09-30T19:45:16;12.50;99.90
1766;DHT22;880;52.452;8.656;2022-09-30T19:47:45;12.40;99.90
1766;DHT22;880;52.452;8.656;2022-09-30T19:50:13;12.40;99.90
1766;DHT22;880;52.452;8.656;2022-09-30T19:52:40;12.30;99.90
1766;DHT22;880;52.452;8.656;2022-09-30T19:55:19;12.20;99.90
1766;DHT22;880;52.452;8.656;2022-09-30T19:57:46;12.20;99.90
1766;DHT22;880;52.452;8.656;2022-09-30T20:00:13;12.10;99.90
1766;DHT22;880;52.452;8.656;2022-09-30T20:02:40;12.00;99.90
1766;DHT22;880;52.452;8.656;2022-09-30T20:05:08;12.00;99.90
1766;DHT22;880;52.452;8.656;2022-09-30T20:07:35;12.00;99.90
1766;DHT22;880;52.452;8.656;2022-09-30T20:10:02;12.00;99.90